Time;durP1;ratioP1;P1;durP2;ratioP2;P2;SDS_P1;SDS_P2;PMS_P1;PMS_P2;Temp;Humidity;BMP_temperature;BMP_pressure;BME280_temperature;BME280_humidity;BME280_pressure;Samples;Min_cycle;Max_cycle;Signal;HPM_P1;HPM_P2
2021/04/10 00:00:44;;;;;;;7.43;5.57;;;10.40;23.30;;;;;;10448343;28;20264;-73
2021/04/10 00:05:47;;;;;;;7.50;5.93;;;10.40;23.40;;;;;;10445242;28;20716;-73
2021/04/10 00:10:50;;;;;;;6.80;6.07;;;10.40;23.70;;;;;;10444025;28;20604;-73
2021/04/10 00:15:53;;;;;;;5.60;4.93;;;10.40;23.70;;;;;;10448706;28;20237;-73
2021/04/10 00:20:56;;;;;;;5.03;4.60;;;10.50;23.80;;;;;;10448330;28;20224;-73
2021/04/10 00:25:58;;;;;;;6.30;4.90;;;10.60;23.90;;;;;;10447747;28;20739;-73
2021/04/10 00:31:07;;;;;;;5.97;4.67;;;10.60;23.70;;;;;;10443662;28;20748;-73
2021/04/10 00:36:10;;;;;;;6.67;5.03;;;10.60;23.70;;;;;;10445245;28;20243;-72
2021/04/10 00:41:13;;;;;;;4.50;4.03;;;10.60;24.00;;;;;;10447594;28;20656;-73
2021/04/10 00:46:15;;;;;;;5.43;4.50;;;10.50;23.80;;;;;;10444959;28;20754;-73
2021/04/10 00:51:19;;;;;;;5.53;4.97;;;10.60;24.00;;;;;;10447498;28;20271;-73
2021/04/10 00:56:21;;;;;;;5.10;4.60;;;10.60;24.20;;;;;;10447925;28;20423;-73
2021/04/10 01:01:24;;;;;;;5.50;4.77;;;10.60;24.10;;;;;;10443779;28;20249;-73
2021/04/10 01:06:27;;;;;;;5.37;4.50;;;10.60;24.20;;;;;;10444318;28;20244;-73
2021/04/10 01:11:39;;;;;;;4.73;4.20;;;10.70;24.40;;;;;;10453089;28;20331;-73
2021/04/10 01:16:49;;;;;;;6.53;4.87;;;10.70;24.60;;;;;;10455006;28;20311;-73
2021/04/10 01:22:03;;;;;;;5.53;5.03;;;10.70;24.50;;;;;;10451662;28;20235;-73
2021/04/10 01:27:18;;;;;;;5.30;4.80;;;10.70;24.50;;;;;;10447340;28;20694;-73
2021/04/10 01:32:35;;;;;;;5.20;4.70;;;10.70;24.70;;;;;;10448759;28;20233;-73
2021/04/10 01:37:43;;;;;;;5.50;4.53;;;10.70;24.50;;;;;;10452304;28;20718;-73
2021/04/10 01:42:47;;;;;;;4.87;4.37;;;10.60;24.40;;;;;;10453899;28;20316;-73
2021/04/10 01:47:52;;;;;;;5.90;4.30;;;10.60;24.30;;;;;;10451496;28;20773;-73
2021/04/10 01:52:56;;;;;;;4.50;4.10;;;10.60;24.50;;;;;;10451154;28;20221;-73
2021/04/10 01:57:59;;;;;;;4.93;4.43;;;10.60;24.30;;;;;;10456096;28;20225;-73
2021/04/10 02:03:03;;;;;;;8.57;4.73;;;10.50;24.40;;;;;;10452143;28;20673;-73
2021/04/10 02:08:08;;;;;;;7.83;4.40;;;10.50;24.40;;;;;;10452875;28;20303;-73
2021/04/10 02:13:12;;;;;;;4.83;3.97;;;10.50;24.60;;;;;;10453756;28;20264;-73
2021/04/10 02:18:17;;;;;;;4.73;4.33;;;10.40;24.40;;;;;;10448422;28;20249;-73
2021/04/10 02:23:20;;;;;;;4.47;4.07;;;10.40;24.70;;;;;;10452103;28;20673;-73
2021/04/10 02:28:23;;;;;;;4.70;4.27;;;10.40;24.70;;;;;;10451223;28;20304;-73
2021/04/10 02:33:32;;;;;;;4.50;3.77;;;10.40;24.70;;;;;;10447250;28;20316;-73
2021/04/10 02:38:35;;;;;;;4.50;3.30;;;10.40;24.90;;;;;;10450818;28;20255;-73
2021/04/10 02:43:41;;;;;;;4.43;3.70;;;10.40;24.60;;;;;;10450656;28;20225;-73
2021/04/10 02:48:54;;;;;;;4.23;3.47;;;10.40;24.70;;;;;;10449009;28;20708;-73
2021/04/10 02:53:57;;;;;;;3.87;3.47;;;10.50;25.00;;;;;;10452225;28;20327;-73
2021/04/10 02:59:01;;;;;;;6.83;3.60;;;10.60;24.80;;;;;;10450327;28;20244;-73
2021/04/10 03:04:05;;;;;;;4.40;3.30;;;10.70;24.90;;;;;;10452086;28;20248;-73
2021/04/10 03:09:08;;;;;;;4.57;3.57;;;10.80;24.90;;;;;;10446687;28;20663;-73
2021/04/10 03:14:11;;;;;;;5.17;3.27;;;10.90;24.80;;;;;;10449062;28;20316;-73
2021/04/10 03:19:15;;;;;;;4.70;3.40;;;11.00;24.80;;;;;;10449697;28;20253;-73
2021/04/10 03:24:17;;;;;;;4.80;3.27;;;11.10;24.80;;;;;;10452201;28;20315;-73
2021/04/10 03:29:20;;;;;;;5.90;3.90;;;11.10;24.80;;;;;;10450778;28;20316;-73
2021/04/10 03:34:24;;;;;;;3.80;3.40;;;11.10;24.70;;;;;;10448873;28;20264;-73
2021/04/10 03:39:29;;;;;;;6.03;3.70;;;11.10;24.90;;;;;;10438127;28;20600;-73
2021/04/10 03:44:32;;;;;;;5.07;3.47;;;11.00;24.80;;;;;;10448499;28;20249;-74
2021/04/10 03:49:41;;;;;;;4.17;3.47;;;11.00;24.90;;;;;;10444476;28;20237;-74
2021/04/10 03:54:43;;;;;;;3.80;3.40;;;10.90;25.00;;;;;;10449024;28;20229;-74
2021/04/10 03:59:46;;;;;;;3.67;3.10;;;10.90;24.90;;;;;;10450606;28;20320;-75
2021/04/10 04:04:49;;;;;;;3.50;3.17;;;10.90;25.00;;;;;;10447301;28;20255;-73
2021/04/10 04:09:51;;;;;;;4.80;3.43;;;11.00;25.00;;;;;;10448674;28;20312;-74
2021/04/10 04:14:53;;;;;;;3.80;3.00;;;11.00;25.00;;;;;;10447416;28;20283;-74
2021/04/10 04:19:56;;;;;;;7.43;5.50;;;11.00;24.90;;;;;;10444349;28;20253;-74
2021/04/10 04:24:58;;;;;;;5.17;3.80;;;11.10;25.00;;;;;;10448796;28;20625;-74
2021/04/10 04:30:01;;;;;;;3.33;2.97;;;11.10;24.90;;;;;;10448641;28;20725;-73
2021/04/10 04:35:05;;;;;;;5.43;3.40;;;11.10;24.90;;;;;;10445238;28;20244;-74
2021/04/10 04:40:08;;;;;;;4.60;3.37;;;11.10;25.00;;;;;;10447694;28;20253;-74
2021/04/10 04:45:11;;;;;;;4.40;3.27;;;11.10;24.80;;;;;;10445292;28;20323;-74
2021/04/10 04:50:14;;;;;;;3.47;3.17;;;11.10;25.00;;;;;;10445707;28;20683;-74
2021/04/10 04:55:16;;;;;;;3.27;2.73;;;11.10;25.00;;;;;;10445999;28;20272;-74
2021/04/10 05:00:19;;;;;;;4.03;3.03;;;11.10;25.00;;;;;;10447439;28;20308;-74
2021/04/10 05:05:22;;;;;;;3.73;2.90;;;11.00;25.00;;;;;;10448254;28;20324;-74
2021/04/10 05:10:25;;;;;;;3.63;3.00;;;11.10;25.10;;;;;;10445262;28;21006;-74
2021/04/10 05:15:27;;;;;;;4.00;3.00;;;11.10;24.90;;;;;;10447355;28;20312;-74
2021/04/10 05:20:30;;;;;;;3.40;2.80;;;11.20;25.00;;;;;;10446245;28;20221;-74
2021/04/10 05:25:33;;;;;;;4.53;2.77;;;11.20;25.00;;;;;;10447062;28;20316;-74
2021/04/10 05:30:35;;;;;;;2.87;2.43;;;11.30;25.10;;;;;;10444920;28;20235;-74
2021/04/10 05:35:38;;;;;;;4.40;2.70;;;11.40;25.10;;;;;;10446603;28;20232;-74
2021/04/10 05:40:41;;;;;;;5.03;2.90;;;11.40;25.10;;;;;;10450003;28;20317;-74
2021/04/10 05:45:43;;;;;;;3.37;2.50;;;11.40;25.00;;;;;;10447464;28;20252;-73
2021/04/10 05:50:46;;;;;;;3.33;2.73;;;11.40;25.10;;;;;;10440280;28;20652;-72
2021/04/10 05:55:48;;;;;;;3.37;2.60;;;11.40;25.30;;;;;;10445056;28;20263;-72
2021/04/10 06:00:50;;;;;;;4.00;2.60;;;11.50;25.40;;;;;;10452246;28;20557;-72
2021/04/10 06:05:54;;;;;;;3.67;2.57;;;11.60;25.50;;;;;;10452684;28;20229;-72
2021/04/10 06:10:56;;;;;;;3.07;2.30;;;11.70;25.50;;;;;;10451510;28;20236;-72
2021/04/10 06:15:58;;;;;;;2.73;2.40;;;11.80;25.50;;;;;;10452321;28;20540;-72
2021/04/10 06:21:02;;;;;;;4.63;3.80;;;12.00;25.60;;;;;;10452513;28;20664;-72
2021/04/10 06:26:04;;;;;;;4.50;4.10;;;12.10;25.70;;;;;;10449580;28;20788;-72
2021/04/10 06:31:07;;;;;;;8.10;5.53;;;12.20;25.60;;;;;;10452066;28;20511;-72
2021/04/10 06:36:10;;;;;;;7.57;4.27;;;12.30;25.60;;;;;;10451235;28;20237;-72
2021/04/10 06:41:13;;;;;;;4.53;3.10;;;12.50;25.80;;;;;;10450591;28;20224;-72
2021/04/10 06:46:16;;;;;;;3.40;2.60;;;12.70;25.80;;;;;;10452173;28;20269;-72
2021/04/10 06:51:21;;;;;;;3.83;2.40;;;12.90;25.90;;;;;;10455394;28;20235;-72
2021/04/10 06:56:26;;;;;;;3.07;2.30;;;13.10;25.80;;;;;;10451808;28;20312;-72
2021/04/10 07:01:29;;;;;;;2.33;2.13;;;13.20;25.80;;;;;;10448576;28;20772;-72
2021/04/10 07:06:38;;;;;;;3.00;2.20;;;13.40;25.80;;;;;;10454538;28;20312;-72
2021/04/10 07:11:41;;;;;;;2.20;2.00;;;13.60;25.60;;;;;;10450979;28;20694;-72
2021/04/10 07:16:43;;;;;;;2.03;1.80;;;13.80;25.60;;;;;;10452229;28;20229;-72
2021/04/10 07:22:05;;;;;;;1.80;1.70;;;14.10;25.60;;;;;;10448160;28;20843;-72
2021/04/10 07:27:10;;;;;;;2.70;1.77;;;14.40;25.50;;;;;;10450423;28;20747;-72
2021/04/10 07:32:27;;;;;;;2.53;1.80;;;14.70;25.50;;;;;;10449933;28;20320;-72
2021/04/10 07:37:40;;;;;;;2.30;2.00;;;14.90;25.40;;;;;;10450842;28;20229;-72
2021/04/10 07:42:44;;;;;;;3.40;2.00;;;15.30;24.80;;;;;;10449551;28;20255;-72
2021/04/10 07:47:46;;;;;;;4.13;1.90;;;15.50;25.10;;;;;;10446879;28;20223;-72
2021/04/10 07:52:50;;;;;;;3.87;1.70;;;15.80;25.00;;;;;;10451578;28;20313;-73
2021/04/10 07:57:52;;;;;;;2.33;1.60;;;16.00;24.60;;;;;;10451818;28;20704;-73
2021/04/10 08:02:54;;;;;;;4.77;3.33;;;16.20;24.40;;;;;;10444854;28;20236;-73
2021/04/10 08:07:57;;;;;;;3.77;1.97;;;16.30;24.40;;;;;;10448512;28;20644;-73
2021/04/10 08:13:08;;;;;;;3.23;1.80;;;16.50;24.00;;;;;;10447463;28;20328;-73
2021/04/10 08:18:23;;;;;;;3.00;1.90;;;16.60;23.40;;;;;;10444857;28;20304;-73
2021/04/10 08:23:26;;;;;;;3.23;1.60;;;16.60;23.00;;;;;;10443783;28;20249;-73
2021/04/10 08:28:29;;;;;;;1.93;1.53;;;16.50;23.50;;;;;;10448428;28;20312;-72
2021/04/10 08:33:34;;;;;;;2.27;1.87;;;16.50;24.00;;;;;;10446281;28;20229;-73
2021/04/10 08:38:39;;;;;;;2.13;1.70;;;16.50;23.60;;;;;;10447409;28;20252;-73
2021/04/10 08:43:49;;;;;;;2.83;1.83;;;16.50;23.40;;;;;;10448263;28;20252;-73
2021/04/10 08:48:53;;;;;;;3.03;1.70;;;16.50;23.00;;;;;;10442032;28;20266;-72
2021/04/10 08:53:58;;;;;;;5.47;2.00;;;16.50;23.30;;;;;;10445637;28;20653;-73
2021/04/10 08:59:11;;;;;;;2.73;1.73;;;16.50;23.30;;;;;;10445149;28;20237;-73
2021/04/10 09:04:14;;;;;;;3.70;1.60;;;16.40;23.20;;;;;;10445545;28;20527;-72
2021/04/10 09:09:28;;;;;;;1.97;1.60;;;16.40;23.80;;;;;;10449516;28;20308;-73
2021/04/10 09:14:43;;;;;;;2.43;1.70;;;16.40;23.50;;;;;;10442811;28;20315;-73
2021/04/10 09:19:53;;;;;;;3.43;1.67;;;16.40;23.90;;;;;;10444572;28;20224;-73
2021/04/10 09:24:57;;;;;;;2.53;1.53;;;16.40;23.90;;;;;;10446468;28;20362;-73
2021/04/10 09:30:02;;;;;;;2.50;1.70;;;16.40;23.70;;;;;;10441036;28;20247;-73
2021/04/10 09:35:07;;;;;;;3.40;1.70;;;16.40;24.10;;;;;;10453470;28;20296;-73
2021/04/10 09:40:17;;;;;;;3.43;1.70;;;16.40;24.10;;;;;;10452757;28;20213;-73
2021/04/10 09:45:30;;;;;;;2.53;1.90;;;16.40;24.30;;;;;;10449860;28;20229;-73
2021/04/10 09:50:34;;;;;;;2.40;1.57;;;16.40;24.20;;;;;;10448143;28;20290;-73
2021/04/10 09:55:40;;;;;;;3.33;1.53;;;16.40;24.20;;;;;;10451963;28;20240;-73
2021/04/10 10:00:44;;;;;;;3.10;1.80;;;16.50;24.40;;;;;;10449899;28;20316;-73
2021/04/10 10:05:49;;;;;;;2.33;1.60;;;16.60;24.60;;;;;;10454492;28;20233;-73
2021/04/10 10:10:54;;;;;;;2.53;1.90;;;16.70;24.40;;;;;;10448377;28;20653;-73
2021/04/10 10:15:56;;;;;;;2.90;1.70;;;16.80;24.30;;;;;;10449708;28;20315;-73
2021/04/10 10:21:00;;;;;;;2.67;1.80;;;17.00;24.50;;;;;;10448314;28;20285;-72
2021/04/10 10:26:09;;;;;;;3.93;2.00;;;17.10;24.30;;;;;;10451290;28;20315;-72
2021/04/10 10:31:14;;;;;;;3.33;1.83;;;17.30;24.00;;;;;;10452559;28;20237;-72
2021/04/10 10:36:18;;;;;;;2.80;1.67;;;17.40;24.30;;;;;;10454907;28;20237;-73
2021/04/10 10:41:21;;;;;;;2.93;2.17;;;17.50;24.30;;;;;;10450830;28;20773;-71
2021/04/10 10:46:23;;;;;;;2.20;1.90;;;17.60;24.10;;;;;;10454289;28;20252;-71
2021/04/10 10:51:27;;;;;;;2.43;1.90;;;17.80;24.10;;;;;;10449665;28;20255;-71
2021/04/10 10:56:31;;;;;;;2.30;2.10;;;17.90;23.90;;;;;;10449338;28;20294;-70
2021/04/10 11:01:35;;;;;;;2.57;2.00;;;18.10;24.10;;;;;;10448283;28;20255;-70
2021/04/10 11:06:42;;;;;;;2.63;2.10;;;18.10;24.00;;;;;;10449011;28;20240;-70
2021/04/10 11:11:47;;;;;;;3.10;2.20;;;18.10;24.00;;;;;;10447133;28;20325;-70
2021/04/10 11:16:51;;;;;;;2.70;2.40;;;18.10;24.10;;;;;;10449700;28;20303;-71
2021/04/10 11:21:54;;;;;;;3.10;2.60;;;18.20;24.10;;;;;;10449545;28;20231;-71
2021/04/10 11:26:57;;;;;;;3.97;2.47;;;18.30;24.20;;;;;;10447735;28;20654;-71
2021/04/10 11:32:23;;;;;;;3.53;2.30;;;18.40;24.20;;;;;;10449126;28;20769;-71
2021/04/10 11:37:44;;;;;;;3.47;2.07;;;18.50;24.30;;;;;;10446573;28;20283;-71
2021/04/10 11:42:49;;;;;;;3.03;2.40;;;18.60;24.40;;;;;;10447765;28;20235;-71
2021/04/10 11:48:06;;;;;;;2.40;2.20;;;18.70;24.10;;;;;;10447741;28;20236;-71
2021/04/10 11:53:20;;;;;;;3.37;2.10;;;18.70;24.10;;;;;;10448236;28;20590;-70
2021/04/10 11:58:31;;;;;;;3.10;2.07;;;18.70;24.10;;;;;;10447725;28;20308;-71
2021/04/10 12:03:45;;;;;;;2.33;2.00;;;18.80;24.00;;;;;;10444842;28;20311;-71
2021/04/10 12:08:48;;;;;;;4.77;2.20;;;18.80;23.90;;;;;;10449658;28;20231;-71
2021/04/10 12:13:51;;;;;;;2.37;2.17;;;18.90;24.20;;;;;;10448115;28;20338;-70
2021/04/10 12:18:54;;;;;;;4.03;2.40;;;18.90;24.10;;;;;;10444492;28;20278;-71
2021/04/10 12:23:56;;;;;;;2.17;1.97;;;18.90;24.60;;;;;;10447172;28;20312;-71
2021/04/10 12:28:59;;;;;;;3.10;2.23;;;18.90;23.90;;;;;;10443177;28;20267;-70
2021/04/10 12:34:02;;;;;;;2.60;2.00;;;18.90;23.90;;;;;;10435195;28;20312;-71
2021/04/10 12:39:04;;;;;;;2.77;1.90;;;18.90;24.10;;;;;;10432373;28;20229;-70
2021/04/10 12:44:07;;;;;;;2.27;2.07;;;18.90;23.80;;;;;;10442594;28;20308;-70
2021/04/10 12:49:09;;;;;;;1.80;1.70;;;18.90;23.70;;;;;;10441187;28;20777;-71
2021/04/10 12:54:12;;;;;;;3.47;1.90;;;18.90;23.70;;;;;;10443106;28;20308;-70
2021/04/10 12:59:15;;;;;;;1.73;1.50;;;18.90;23.80;;;;;;10445958;28;20319;-71
2021/04/10 13:04:17;;;;;;;3.30;1.90;;;18.90;23.70;;;;;;10442120;28;20323;-72
2021/04/10 13:09:19;;;;;;;1.57;1.40;;;19.00;23.80;;;;;;10445227;28;20239;-71
2021/04/10 13:14:23;;;;;;;2.20;2.00;;;19.10;23.60;;;;;;10442454;28;20260;-71
2021/04/10 13:19:25;;;;;;;2.43;2.17;;;19.10;23.50;;;;;;10444425;28;20348;-71
2021/04/10 13:24:27;;;;;;;2.53;1.70;;;19.20;23.50;;;;;;10439699;28;20279;-70
2021/04/10 13:29:31;;;;;;;2.90;1.93;;;19.30;23.80;;;;;;10445413;28;20338;-71
2021/04/10 13:34:33;;;;;;;2.20;1.90;;;19.40;23.30;;;;;;10443144;28;20704;-71
2021/04/10 13:39:36;;;;;;;2.13;1.97;;;19.50;23.40;;;;;;10442854;28;20221;-70
2021/04/10 13:44:39;;;;;;;2.50;2.30;;;19.60;23.30;;;;;;10445071;28;20279;-71
2021/04/10 13:49:42;;;;;;;2.37;2.03;;;19.60;22.90;;;;;;10440844;28;20731;-71
2021/04/10 13:54:45;;;;;;;1.70;1.60;;;19.60;23.30;;;;;;10444558;28;20239;-70
2021/04/10 14:00:00;;;;;;;1.80;1.70;;;19.60;23.30;;;;;;10443152;28;20646;-71
2021/04/10 14:05:14;;;;;;;1.57;1.43;;;19.70;23.30;;;;;;10443080;28;20668;-71
2021/04/10 14:10:19;;;;;;;1.77;1.63;;;19.80;23.30;;;;;;10444987;28;20252;-71
2021/04/10 14:15:24;;;;;;;1.70;1.60;;;19.90;23.10;;;;;;10445115;28;20265;-70
2021/04/10 14:20:30;;;;;;;2.00;1.80;;;19.90;23.00;;;;;;10446554;28;20271;-71
2021/04/10 14:25:34;;;;;;;2.70;1.70;;;20.00;22.90;;;;;;10447559;28;20840;-73
2021/04/10 14:30:40;;;;;;;2.00;1.70;;;20.10;23.00;;;;;;10451255;28;20325;-72
2021/04/10 14:36:01;;;;;;;2.93;1.90;;;20.10;23.00;;;;;;10449049;28;20312;-72
2021/04/10 14:41:03;;;;;;;2.67;1.80;;;20.20;22.70;;;;;;10449040;28;20665;-73
2021/04/10 14:46:06;;;;;;;2.00;1.80;;;20.20;22.80;;;;;;10450852;28;20229;-72
2021/04/10 14:51:09;;;;;;;4.17;2.00;;;20.30;22.80;;;;;;10450700;28;20889;-72
2021/04/10 14:56:13;;;;;;;2.73;2.20;;;20.30;22.70;;;;;;10450514;28;20316;-72
2021/04/10 15:01:15;;;;;;;2.30;2.10;;;20.30;22.60;;;;;;10451027;28;20311;-71
2021/04/10 15:06:18;;;;;;;2.27;2.07;;;20.40;22.80;;;;;;10449346;28;20725;-71
2021/04/10 15:11:21;;;;;;;2.80;2.00;;;20.40;22.50;;;;;;10447662;28;20248;-71
2021/04/10 15:16:27;;;;;;;2.10;1.90;;;20.40;22.50;;;;;;10447179;28;20573;-71
2021/04/10 15:21:30;;;;;;;2.93;2.00;;;20.40;22.40;;;;;;10444465;28;20304;-71
2021/04/10 15:26:34;;;;;;;2.67;2.07;;;20.40;22.50;;;;;;10449596;28;20308;-70
2021/04/10 15:31:43;;;;;;;2.67;1.80;;;20.40;22.50;;;;;;10446801;28;20229;-71
2021/04/10 15:36:47;;;;;;;2.47;2.20;;;20.40;22.20;;;;;;10449313;28;20290;-71
2021/04/10 15:41:49;;;;;;;2.63;1.90;;;20.40;22.50;;;;;;10445479;28;20412;-71
2021/04/10 15:46:51;;;;;;;2.47;2.27;;;20.40;22.80;;;;;;10450934;28;20717;-72
2021/04/10 15:51:54;;;;;;;2.50;2.17;;;20.40;22.60;;;;;;10446868;28;20583;-71
2021/04/10 15:56:56;;;;;;;1.80;1.70;;;20.40;22.50;;;;;;10448571;28;20915;-71
2021/04/10 16:01:59;;;;;;;3.37;2.00;;;20.30;23.10;;;;;;10449378;28;20324;-71
2021/04/10 16:07:02;;;;;;;3.37;1.97;;;20.30;22.50;;;;;;10449087;28;20681;-71
2021/04/10 16:12:17;;;;;;;3.23;2.10;;;20.30;22.50;;;;;;10445890;28;20819;-71
2021/04/10 16:17:20;;;;;;;1.93;1.80;;;20.30;22.50;;;;;;10447542;28;20260;-72
2021/04/10 16:22:23;;;;;;;3.70;2.10;;;20.30;22.50;;;;;;10448703;28;20239;-71
2021/04/10 16:27:25;;;;;;;3.03;2.20;;;20.30;22.60;;;;;;10448830;28;20272;-72
2021/04/10 16:32:27;;;;;;;2.70;2.00;;;20.30;22.60;;;;;;10442976;28;20280;-71
2021/04/10 16:37:31;;;;;;;2.50;1.90;;;20.30;22.90;;;;;;10446357;28;20227;-71
2021/04/10 16:42:34;;;;;;;1.93;1.63;;;20.30;22.90;;;;;;10447235;28;20337;-69
2021/04/10 16:47:36;;;;;;;2.73;2.10;;;20.30;23.10;;;;;;10441642;28;20221;-70
2021/04/10 16:52:39;;;;;;;2.03;1.93;;;20.40;22.80;;;;;;10448215;28;20221;-70
2021/04/10 16:57:42;;;;;;;2.67;2.20;;;20.40;22.80;;;;;;10443689;28;20318;-69
2021/04/10 17:02:44;;;;;;;2.20;2.00;;;20.40;22.70;;;;;;10446553;28;20228;-69
2021/04/10 17:07:47;;;;;;;3.53;2.20;;;20.40;22.80;;;;;;10441771;28;20236;-70
2021/04/10 17:12:51;;;;;;;2.23;2.03;;;20.40;22.70;;;;;;10445984;28;20316;-69
2021/04/10 17:17:53;;;;;;;2.70;2.10;;;20.40;22.70;;;;;;10446060;28;20232;-69
2021/04/10 17:22:57;;;;;;;3.33;2.00;;;20.40;23.00;;;;;;10443152;28;20236;-70
2021/04/10 17:27:59;;;;;;;2.50;1.80;;;20.40;23.00;;;;;;10446509;28;20252;-69
2021/04/10 17:33:02;;;;;;;4.60;2.30;;;20.30;23.00;;;;;;10434227;28;20264;-71
2021/04/10 17:38:06;;;;;;;6.57;5.97;;;20.10;22.80;;;;;;10447095;28;20228;-69
2021/04/10 17:43:13;;;;;;;5.43;3.37;;;20.00;22.80;;;;;;10442980;28;20317;-70
2021/04/10 17:48:16;;;;;;;4.67;2.83;;;19.90;22.80;;;;;;10437489;28;20252;-70
2021/04/10 17:53:23;;;;;;;4.67;3.13;;;19.80;22.70;;;;;;10438403;28;20327;-70
2021/04/10 17:58:26;;;;;;;4.03;2.43;;;19.60;22.80;;;;;;10445270;28;20282;-69
2021/04/10 18:03:28;;;;;;;4.03;2.30;;;19.50;22.60;;;;;;10438993;28;20308;-70
2021/04/10 18:08:32;;;;;;;4.10;2.27;;;19.40;22.80;;;;;;10443343;28;20239;-70
2021/04/10 18:13:34;;;;;;;3.87;3.57;;;19.40;22.90;;;;;;10442599;28;20760;-69
2021/04/10 18:18:36;;;;;;;5.17;3.57;;;19.30;23.10;;;;;;10437159;28;20229;-73
2021/04/10 18:23:42;;;;;;;3.67;3.00;;;19.20;23.10;;;;;;10444582;28;20239;-73
2021/04/10 18:28:44;;;;;;;3.40;2.97;;;19.10;23.30;;;;;;10443209;28;20253;-74
2021/04/10 18:33:47;;;;;;;3.57;2.90;;;19.10;23.20;;;;;;10446512;28;20319;-74
2021/04/10 18:38:50;;;;;;;2.50;2.30;;;18.90;23.10;;;;;;10456252;28;20304;-74
2021/04/10 18:43:54;;;;;;;3.83;3.17;;;18.70;23.30;;;;;;10452136;28;20319;-73
2021/04/10 18:48:56;;;;;;;5.83;4.77;;;18.60;23.40;;;;;;10450046;28;20260;-73
2021/04/10 18:53:59;;;;;;;5.33;4.83;;;18.50;23.40;;;;;;10453816;28;20327;-72
2021/04/10 18:59:06;;;;;;;6.87;5.60;;;18.30;23.50;;;;;;10452209;28;20319;-72
2021/04/10 19:04:08;;;;;;;7.00;6.30;;;18.20;24.00;;;;;;10446676;28;20761;-72
2021/04/10 19:09:12;;;;;;;8.57;6.73;;;18.00;23.50;;;;;;10457881;28;20625;-73
2021/04/10 19:14:15;;;;;;;6.57;5.97;;;17.80;23.80;;;;;;10450788;28;20316;-73
2021/04/10 19:19:17;;;;;;;6.37;5.33;;;17.70;23.80;;;;;;10454953;28;20266;-73
2021/04/10 19:24:21;;;;;;;4.13;3.50;;;17.50;23.60;;;;;;10450070;28;20319;-73
2021/04/10 19:29:23;;;;;;;3.60;3.13;;;17.20;23.40;;;;;;10444609;28;20715;-73
2021/04/10 19:34:25;;;;;;;4.30;3.30;;;17.10;23.40;;;;;;10449770;28;20356;-73
2021/04/10 19:39:28;;;;;;;5.33;3.70;;;16.90;23.50;;;;;;10442428;28;20221;-73
2021/04/10 19:44:31;;;;;;;5.10;3.30;;;16.70;23.80;;;;;;10442553;28;20320;-73
2021/04/10 19:49:33;;;;;;;5.60;4.10;;;16.70;24.00;;;;;;10443457;28;20423;-73
2021/04/10 19:54:36;;;;;;;5.63;3.70;;;16.60;24.10;;;;;;10451787;28;20221;-73
2021/04/10 19:59:39;;;;;;;4.70;4.20;;;16.50;24.20;;;;;;10443426;28;20237;-73
2021/04/10 20:04:42;;;;;;;5.13;4.63;;;16.50;24.30;;;;;;10440741;28;20739;-73
2021/04/10 20:09:47;;;;;;;8.33;7.27;;;16.40;24.30;;;;;;10444523;28;20239;-73
2021/04/10 20:14:49;;;;;;;7.20;6.50;;;16.40;24.50;;;;;;10441751;28;20232;-73
2021/04/10 20:19:52;;;;;;;6.47;5.87;;;16.30;24.30;;;;;;10442475;28;20327;-73
2021/04/10 20:24:55;;;;;;;5.00;4.50;;;16.30;24.50;;;;;;10439438;28;20256;-73
2021/04/10 20:29:57;;;;;;;4.57;4.17;;;16.20;24.50;;;;;;10441321;28;20256;-73
2021/04/10 20:34:59;;;;;;;4.50;4.10;;;16.10;24.40;;;;;;10443733;28;20303;-73
2021/04/10 20:40:07;;;;;;;5.90;5.30;;;16.10;24.50;;;;;;10443171;28;20235;-73
2021/04/10 20:45:10;;;;;;;4.93;4.53;;;16.00;24.70;;;;;;10443455;28;20344;-73
2021/04/10 20:50:15;;;;;;;5.63;4.63;;;16.00;24.70;;;;;;10440990;28;20229;-73
2021/04/10 20:55:19;;;;;;;6.20;5.60;;;15.90;24.90;;;;;;10446823;28;20431;-73
2021/04/10 21:00:22;;;;;;;6.07;5.47;;;15.80;24.90;;;;;;10442724;28;20256;-73
2021/04/10 21:05:24;;;;;;;6.20;5.37;;;15.80;24.90;;;;;;10440270;28;20233;-73
2021/04/10 21:10:27;;;;;;;6.03;5.40;;;15.70;24.80;;;;;;10440334;28;20315;-73
2021/04/10 21:15:30;;;;;;;5.60;5.10;;;15.60;24.90;;;;;;10445284;28;20694;-73
2021/04/10 21:20:32;;;;;;;5.27;4.77;;;15.50;25.00;;;;;;10440343;28;20729;-74
2021/04/10 21:25:36;;;;;;;7.60;5.10;;;15.50;25.00;;;;;;10443727;28;20248;-73
2021/04/10 21:30:38;;;;;;;5.57;5.03;;;15.40;25.20;;;;;;10452095;28;20719;-73
2021/04/10 21:35:40;;;;;;;6.13;4.70;;;15.30;25.10;;;;;;10449650;28;20705;-73
2021/04/10 21:40:43;;;;;;;8.10;5.70;;;15.30;25.20;;;;;;10453820;28;20312;-73
2021/04/10 21:45:46;;;;;;;5.60;5.10;;;15.20;25.40;;;;;;10453369;28;20311;-73
2021/04/10 21:50:48;;;;;;;7.17;6.00;;;15.10;25.30;;;;;;10450608;28;20308;-73
2021/04/10 21:55:51;;;;;;;5.53;5.03;;;15.00;25.30;;;;;;10454318;28;20259;-73
2021/04/10 22:00:58;;;;;;;6.27;5.47;;;14.90;25.50;;;;;;10449934;28;20240;-73
2021/04/10 22:06:01;;;;;;;6.97;5.27;;;14.90;25.90;;;;;;10453570;28;20311;-72
2021/04/10 22:11:05;;;;;;;6.13;5.53;;;14.80;25.60;;;;;;10445108;28;20225;-72
2021/04/10 22:16:09;;;;;;;6.93;5.70;;;14.70;25.70;;;;;;10451329;28;20235;-73
2021/04/10 22:21:14;;;;;;;6.37;5.23;;;14.60;25.60;;;;;;10452412;28;20266;-73
2021/04/10 22:26:17;;;;;;;7.00;5.90;;;14.60;25.80;;;;;;10449833;28;20717;-73
2021/04/10 22:31:20;;;;;;;6.43;5.40;;;14.60;25.90;;;;;;10451816;28;20221;-73
2021/04/10 22:36:23;;;;;;;5.67;4.90;;;14.50;25.80;;;;;;10451323;28;20840;-72
2021/04/10 22:41:26;;;;;;;5.77;5.27;;;14.50;25.90;;;;;;10450305;28;20765;-72
2021/04/10 22:46:29;;;;;;;6.27;5.63;;;14.50;26.10;;;;;;10448593;28;20312;-72
2021/04/10 22:51:31;;;;;;;6.17;5.57;;;14.50;26.00;;;;;;10449536;28;20725;-69
2021/04/10 22:56:34;;;;;;;6.47;5.87;;;14.50;26.00;;;;;;10451646;28;20225;-72
2021/04/10 23:01:36;;;;;;;5.67;4.90;;;14.60;26.20;;;;;;10449316;28;20296;-72
2021/04/10 23:06:39;;;;;;;6.90;5.60;;;14.50;26.10;;;;;;10450572;28;20743;-72
2021/04/10 23:11:42;;;;;;;6.47;5.50;;;14.50;26.10;;;;;;10450741;28;20257;-72
2021/04/10 23:16:44;;;;;;;6.47;5.10;;;14.50;26.20;;;;;;10449850;28;20252;-72
2021/04/10 23:21:46;;;;;;;6.00;5.40;;;14.40;26.00;;;;;;10447279;28;20267;-72
2021/04/10 23:26:49;;;;;;;6.63;4.90;;;14.40;26.30;;;;;;10454164;28;20235;-72
2021/04/10 23:31:51;;;;;;;5.23;4.73;;;14.30;26.40;;;;;;10450647;28;20315;-72
2021/04/10 23:36:54;;;;;;;4.87;4.43;;;14.30;26.40;;;;;;10447402;28;20240;-72
2021/04/10 23:41:59;;;;;;;5.40;4.77;;;14.30;26.40;;;;;;10450359;28;20637;-72
2021/04/10 23:47:01;;;;;;;5.93;5.20;;;14.20;26.30;;;;;;10449141;28;20312;-72
2021/04/10 23:52:03;;;;;;;5.77;4.93;;;14.20;26.10;;;;;;10444628;28;20224;-70
2021/04/10 23:57:08;;;;;;;5.53;5.03;;;14.10;26.80;;;;;;10448875;28;20275;-69
